sensor_id;sensor_type;location;lat;lon;timestamp;P1;durP1;ratioP1;P2;durP2;ratioP2
19828;SDS011;10075;50.924;4.396;2023-02-15T00:01:05;70.63;;;41.63;;
19828;SDS011;10075;50.924;4.396;2023-02-15T00:03:33;76.60;;;40.00;;
19828;SDS011;10075;50.924;4.396;2023-02-15T00:06:00;65.10;;;37.60;;
19828;SDS011;10075;50.924;4.396;2023-02-15T00:08:28;70.70;;;38.13;;
19828;SDS011;10075;50.924;4.396;2023-02-15T00:11:03;66.20;;;39.00;;
19828;SDS011;10075;50.924;4.396;2023-02-15T00:13:33;72.87;;;41.43;;
19828;SDS011;10075;50.924;4.396;2023-02-15T00:16:01;64.13;;;37.07;;
19828;SDS011;10075;50.924;4.396;2023-02-15T00:18:29;64.93;;;38.87;;
19828;SDS011;10075;50.924;4.396;2023-02-15T00:20:56;79.27;;;39.43;;
19828;SDS011;10075;50.924;4.396;2023-02-15T00:23:23;65.63;;;37.80;;
19828;SDS011;10075;50.924;4.396;2023-02-15T00:25:53;69.73;;;41.77;;
19828;SDS011;10075;50.924;4.396;2023-02-15T00:28:29;67.47;;;39.57;;
19828;SDS011;10075;50.924;4.396;2023-02-15T00:31:01;72.27;;;42.50;;
19828;SDS011;10075;50.924;4.396;2023-02-15T00:33:29;65.37;;;39.33;;
19828;SDS011;10075;50.924;4.396;2023-02-15T00:35:57;65.50;;;37.93;;
19828;SDS011;10075;50.924;4.396;2023-02-15T00:38:24;70.43;;;39.23;;
19828;SDS011;10075;50.924;4.396;2023-02-15T00:40:54;71.13;;;39.13;;
19828;SDS011;10075;50.924;4.396;2023-02-15T00:43:21;77.23;;;40.93;;
19828;SDS011;10075;50.924;4.396;2023-02-15T00:45:48;71.10;;;38.53;;
19828;SDS011;10075;50.924;4.396;2023-02-15T00:48:16;64.27;;;38.03;;
19828;SDS011;10075;50.924;4.396;2023-02-15T00:50:44;60.37;;;36.53;;
19828;SDS011;10075;50.924;4.396;2023-02-15T00:53:11;67.70;;;36.67;;
19828;SDS011;10075;50.924;4.396;2023-02-15T00:55:39;69.30;;;38.70;;
19828;SDS011;10075;50.924;4.396;2023-02-15T00:58:07;67.97;;;38.07;;
19828;SDS011;10075;50.924;4.396;2023-02-15T01:00:35;67.90;;;38.17;;
19828;SDS011;10075;50.924;4.396;2023-02-15T01:03:03;72.80;;;39.03;;
19828;SDS011;10075;50.924;4.396;2023-02-15T01:05:30;68.13;;;38.37;;
19828;SDS011;10075;50.924;4.396;2023-02-15T01:07:57;78.40;;;42.60;;
19828;SDS011;10075;50.924;4.396;2023-02-15T01:10:25;78.10;;;40.87;;
19828;SDS011;10075;50.924;4.396;2023-02-15T01:12:53;69.07;;;38.53;;
19828;SDS011;10075;50.924;4.396;2023-02-15T01:15:22;79.33;;;41.97;;
19828;SDS011;10075;50.924;4.396;2023-02-15T01:17:49;73.43;;;41.70;;
19828;SDS011;10075;50.924;4.396;2023-02-15T01:20:18;79.80;;;42.20;;
19828;SDS011;10075;50.924;4.396;2023-02-15T01:22:46;76.63;;;41.17;;
19828;SDS011;10075;50.924;4.396;2023-02-15T01:25:15;77.07;;;42.53;;
19828;SDS011;10075;50.924;4.396;2023-02-15T01:27:42;71.83;;;40.77;;
19828;SDS011;10075;50.924;4.396;2023-02-15T01:30:09;75.57;;;40.17;;
19828;SDS011;10075;50.924;4.396;2023-02-15T01:32:39;81.60;;;44.90;;
19828;SDS011;10075;50.924;4.396;2023-02-15T01:35:06;83.60;;;44.53;;
19828;SDS011;10075;50.924;4.396;2023-02-15T01:37:34;83.60;;;44.33;;
19828;SDS011;10075;50.924;4.396;2023-02-15T01:40:01;73.97;;;39.73;;
19828;SDS011;10075;50.924;4.396;2023-02-15T01:42:29;73.17;;;39.80;;
19828;SDS011;10075;50.924;4.396;2023-02-15T01:44:57;68.73;;;38.67;;
19828;SDS011;10075;50.924;4.396;2023-02-15T01:47:26;68.40;;;37.77;;
19828;SDS011;10075;50.924;4.396;2023-02-15T01:50:06;65.70;;;36.20;;
19828;SDS011;10075;50.924;4.396;2023-02-15T01:52:36;65.13;;;35.33;;
19828;SDS011;10075;50.924;4.396;2023-02-15T01:55:06;66.97;;;36.07;;
19828;SDS011;10075;50.924;4.396;2023-02-15T01:57:35;63.80;;;34.40;;
19828;SDS011;10075;50.924;4.396;2023-02-15T02:00:03;63.17;;;35.83;;
19828;SDS011;10075;50.924;4.396;2023-02-15T02:02:32;70.90;;;37.07;;
19828;SDS011;10075;50.924;4.396;2023-02-15T02:05:00;70.70;;;37.63;;
19828;SDS011;10075;50.924;4.396;2023-02-15T02:07:33;68.17;;;38.13;;
19828;SDS011;10075;50.924;4.396;2023-02-15T02:10:04;62.70;;;36.53;;
19828;SDS011;10075;50.924;4.396;2023-02-15T02:12:33;60.77;;;35.03;;
19828;SDS011;10075;50.924;4.396;2023-02-15T02:15:02;61.90;;;36.53;;
19828;SDS011;10075;50.924;4.396;2023-02-15T02:17:34;72.47;;;38.27;;
19828;SDS011;10075;50.924;4.396;2023-02-15T02:20:14;83.03;;;40.37;;
19828;SDS011;10075;50.924;4.396;2023-02-15T02:23:10;71.03;;;37.27;;
19828;SDS011;10075;50.924;4.396;2023-02-15T02:25:59;60.33;;;35.03;;
19828;SDS011;10075;50.924;4.396;2023-02-15T02:28:56;66.70;;;37.90;;
19828;SDS011;10075;50.924;4.396;2023-02-15T02:34:40;61.60;;;35.40;;
19828;SDS011;10075;50.924;4.396;2023-02-15T02:37:16;63.97;;;34.93;;
19828;SDS011;10075;50.924;4.396;2023-02-15T02:39:51;78.87;;;41.37;;
19828;SDS011;10075;50.924;4.396;2023-02-15T02:42:25;64.23;;;36.77;;
19828;SDS011;10075;50.924;4.396;2023-02-15T02:44:58;70.23;;;39.17;;
19828;SDS011;10075;50.924;4.396;2023-02-15T02:47:30;71.33;;;37.13;;
19828;SDS011;10075;50.924;4.396;2023-02-15T02:50:04;66.23;;;35.77;;
19828;SDS011;10075;50.924;4.396;2023-02-15T02:52:34;80.50;;;42.53;;
19828;SDS011;10075;50.924;4.396;2023-02-15T02:55:05;98.07;;;50.47;;
19828;SDS011;10075;50.924;4.396;2023-02-15T02:57:36;77.17;;;42.60;;
19828;SDS011;10075;50.924;4.396;2023-02-15T03:00:09;76.00;;;40.90;;
19828;SDS011;10075;50.924;4.396;2023-02-15T03:02:39;78.47;;;43.43;;
19828;SDS011;10075;50.924;4.396;2023-02-15T03:05:12;85.63;;;43.33;;
19828;SDS011;10075;50.924;4.396;2023-02-15T03:07:42;82.10;;;42.40;;
19828;SDS011;10075;50.924;4.396;2023-02-15T03:10:15;73.80;;;40.60;;
19828;SDS011;10075;50.924;4.396;2023-02-15T03:12:44;70.50;;;39.73;;
19828;SDS011;10075;50.924;4.396;2023-02-15T03:15:12;70.23;;;40.93;;
19828;SDS011;10075;50.924;4.396;2023-02-15T03:17:45;82.13;;;42.83;;
19828;SDS011;10075;50.924;4.396;2023-02-15T03:20:17;77.60;;;40.20;;
19828;SDS011;10075;50.924;4.396;2023-02-15T03:22:51;70.60;;;39.80;;
19828;SDS011;10075;50.924;4.396;2023-02-15T03:25:22;74.13;;;39.47;;
19828;SDS011;10075;50.924;4.396;2023-02-15T03:27:53;71.43;;;38.77;;
19828;SDS011;10075;50.924;4.396;2023-02-15T03:30:24;77.93;;;41.37;;
19828;SDS011;10075;50.924;4.396;2023-02-15T03:32:54;62.10;;;34.90;;
19828;SDS011;10075;50.924;4.396;2023-02-15T03:35:25;67.50;;;36.97;;
19828;SDS011;10075;50.924;4.396;2023-02-15T03:37:58;68.30;;;36.37;;
19828;SDS011;10075;50.924;4.396;2023-02-15T03:40:28;67.20;;;37.37;;
19828;SDS011;10075;50.924;4.396;2023-02-15T03:43:17;60.30;;;33.93;;
19828;SDS011;10075;50.924;4.396;2023-02-15T03:45:51;55.67;;;32.03;;
19828;SDS011;10075;50.924;4.396;2023-02-15T03:48:26;59.40;;;32.87;;
19828;SDS011;10075;50.924;4.396;2023-02-15T03:50:58;60.93;;;33.87;;
19828;SDS011;10075;50.924;4.396;2023-02-15T03:53:46;62.37;;;32.43;;
19828;SDS011;10075;50.924;4.396;2023-02-15T03:56:15;57.27;;;33.10;;
19828;SDS011;10075;50.924;4.396;2023-02-15T03:58:42;74.60;;;38.60;;
19828;SDS011;10075;50.924;4.396;2023-02-15T04:01:27;73.00;;;37.27;;
19828;SDS011;10075;50.924;4.396;2023-02-15T04:04:19;67.10;;;35.53;;
19828;SDS011;10075;50.924;4.396;2023-02-15T04:06:49;56.37;;;32.47;;
19828;SDS011;10075;50.924;4.396;2023-02-15T04:09:16;68.30;;;36.10;;
19828;SDS011;10075;50.924;4.396;2023-02-15T04:12:01;53.47;;;31.63;;
19828;SDS011;10075;50.924;4.396;2023-02-15T04:14:28;62.67;;;34.87;;
19828;SDS011;10075;50.924;4.396;2023-02-15T04:17:12;64.33;;;36.10;;
19828;SDS011;10075;50.924;4.396;2023-02-15T04:19:39;67.40;;;36.70;;
19828;SDS011;10075;50.924;4.396;2023-02-15T04:22:25;72.30;;;38.07;;
19828;SDS011;10075;50.924;4.396;2023-02-15T04:25:09;67.63;;;36.60;;
19828;SDS011;10075;50.924;4.396;2023-02-15T04:27:36;72.17;;;38.80;;
19828;SDS011;10075;50.924;4.396;2023-02-15T04:30:05;77.67;;;39.97;;
19828;SDS011;10075;50.924;4.396;2023-02-15T04:32:33;71.77;;;39.80;;
19828;SDS011;10075;50.924;4.396;2023-02-15T04:35:00;68.10;;;38.90;;
19828;SDS011;10075;50.924;4.396;2023-02-15T04:37:29;73.20;;;39.40;;
19828;SDS011;10075;50.924;4.396;2023-02-15T04:39:55;70.77;;;38.07;;
19828;SDS011;10075;50.924;4.396;2023-02-15T04:42:23;68.87;;;37.63;;
19828;SDS011;10075;50.924;4.396;2023-02-15T04:44:50;71.03;;;37.93;;
19828;SDS011;10075;50.924;4.396;2023-02-15T04:47:17;65.67;;;36.10;;
19828;SDS011;10075;50.924;4.396;2023-02-15T04:49:44;69.63;;;36.67;;
19828;SDS011;10075;50.924;4.396;2023-02-15T04:52:11;65.97;;;34.93;;
19828;SDS011;10075;50.924;4.396;2023-02-15T04:54:40;63.53;;;34.47;;
19828;SDS011;10075;50.924;4.396;2023-02-15T04:57:07;64.13;;;35.57;;
19828;SDS011;10075;50.924;4.396;2023-02-15T04:59:34;65.43;;;35.07;;
19828;SDS011;10075;50.924;4.396;2023-02-15T05:02:01;66.80;;;35.20;;
19828;SDS011;10075;50.924;4.396;2023-02-15T05:04:28;64.40;;;36.30;;
19828;SDS011;10075;50.924;4.396;2023-02-15T05:06:55;56.30;;;33.33;;
19828;SDS011;10075;50.924;4.396;2023-02-15T05:09:21;64.87;;;36.17;;
19828;SDS011;10075;50.924;4.396;2023-02-15T05:11:50;59.73;;;34.00;;
19828;SDS011;10075;50.924;4.396;2023-02-15T05:14:17;57.33;;;33.20;;
19828;SDS011;10075;50.924;4.396;2023-02-15T05:16:44;57.07;;;32.00;;
19828;SDS011;10075;50.924;4.396;2023-02-15T05:19:11;52.87;;;32.73;;
19828;SDS011;10075;50.924;4.396;2023-02-15T05:21:38;53.17;;;32.13;;
19828;SDS011;10075;50.924;4.396;2023-02-15T05:24:05;57.40;;;31.70;;
19828;SDS011;10075;50.924;4.396;2023-02-15T05:26:55;60.63;;;32.90;;
19828;SDS011;10075;50.924;4.396;2023-02-15T05:29:39;60.00;;;32.10;;
19828;SDS011;10075;50.924;4.396;2023-02-15T05:32:06;53.53;;;31.57;;
19828;SDS011;10075;50.924;4.396;2023-02-15T05:34:33;56.10;;;31.20;;
19828;SDS011;10075;50.924;4.396;2023-02-15T05:37:00;59.33;;;31.93;;
19828;SDS011;10075;50.924;4.396;2023-02-15T05:39:27;57.43;;;31.97;;
19828;SDS011;10075;50.924;4.396;2023-02-15T05:41:57;64.50;;;35.37;;
19828;SDS011;10075;50.924;4.396;2023-02-15T05:44:25;62.73;;;34.27;;
19828;SDS011;10075;50.924;4.396;2023-02-15T05:46:52;63.10;;;33.10;;
19828;SDS011;10075;50.924;4.396;2023-02-15T05:49:19;66.50;;;34.17;;
19828;SDS011;10075;50.924;4.396;2023-02-15T05:51:46;69.40;;;37.67;;
19828;SDS011;10075;50.924;4.396;2023-02-15T05:54:13;66.90;;;36.57;;
19828;SDS011;10075;50.924;4.396;2023-02-15T05:56:40;60.70;;;34.20;;
19828;SDS011;10075;50.924;4.396;2023-02-15T05:59:08;64.13;;;36.40;;
19828;SDS011;10075;50.924;4.396;2023-02-15T06:01:35;68.37;;;38.17;;
19828;SDS011;10075;50.924;4.396;2023-02-15T06:04:02;76.97;;;37.43;;
19828;SDS011;10075;50.924;4.396;2023-02-15T06:06:29;68.93;;;36.80;;
19828;SDS011;10075;50.924;4.396;2023-02-15T06:08:56;65.30;;;36.57;;
19828;SDS011;10075;50.924;4.396;2023-02-15T06:11:23;68.23;;;37.27;;
19828;SDS011;10075;50.924;4.396;2023-02-15T06:13:50;61.87;;;34.27;;
19828;SDS011;10075;50.924;4.396;2023-02-15T06:16:18;63.83;;;34.90;;
19828;SDS011;10075;50.924;4.396;2023-02-15T06:18:45;61.60;;;34.33;;
19828;SDS011;10075;50.924;4.396;2023-02-15T06:21:12;71.43;;;36.80;;
19828;SDS011;10075;50.924;4.396;2023-02-15T06:23:39;64.20;;;36.77;;
19828;SDS011;10075;50.924;4.396;2023-02-15T06:26:06;77.73;;;43.07;;
19828;SDS011;10075;50.924;4.396;2023-02-15T06:28:33;80.60;;;42.73;;
19828;SDS011;10075;50.924;4.396;2023-02-15T06:31:00;80.00;;;42.87;;
19828;SDS011;10075;50.924;4.396;2023-02-15T06:33:28;77.27;;;41.17;;
19828;SDS011;10075;50.924;4.396;2023-02-15T06:35:58;72.03;;;40.63;;
19828;SDS011;10075;50.924;4.396;2023-02-15T06:38:26;70.43;;;37.03;;
19828;SDS011;10075;50.924;4.396;2023-02-15T06:40:53;66.07;;;37.77;;
19828;SDS011;10075;50.924;4.396;2023-02-15T06:43:20;72.87;;;37.87;;
19828;SDS011;10075;50.924;4.396;2023-02-15T06:45:47;68.10;;;37.97;;
19828;SDS011;10075;50.924;4.396;2023-02-15T06:48:14;71.73;;;38.10;;
19828;SDS011;10075;50.924;4.396;2023-02-15T06:50:43;73.33;;;38.23;;
19828;SDS011;10075;50.924;4.396;2023-02-15T06:53:09;72.00;;;37.67;;
19828;SDS011;10075;50.924;4.396;2023-02-15T06:55:36;65.83;;;38.00;;
19828;SDS011;10075;50.924;4.396;2023-02-15T06:58:03;78.63;;;38.87;;
19828;SDS011;10075;50.924;4.396;2023-02-15T07:00:30;62.20;;;34.10;;
19828;SDS011;10075;50.924;4.396;2023-02-15T07:02:58;73.67;;;38.70;;
19828;SDS011;10075;50.924;4.396;2023-02-15T07:05:25;72.33;;;37.50;;
19828;SDS011;10075;50.924;4.396;2023-02-15T07:07:57;83.03;;;42.33;;
19828;SDS011;10075;50.924;4.396;2023-02-15T07:10:24;73.77;;;41.73;;
19828;SDS011;10075;50.924;4.396;2023-02-15T07:12:51;83.70;;;42.00;;
19828;SDS011;10075;50.924;4.396;2023-02-15T07:15:18;78.47;;;41.07;;
19828;SDS011;10075;50.924;4.396;2023-02-15T07:17:47;77.73;;;41.67;;
19828;SDS011;10075;50.924;4.396;2023-02-15T07:20:15;75.43;;;41.57;;
19828;SDS011;10075;50.924;4.396;2023-02-15T07:22:43;74.50;;;42.73;;
19828;SDS011;10075;50.924;4.396;2023-02-15T07:25:12;72.67;;;41.73;;
19828;SDS011;10075;50.924;4.396;2023-02-15T07:27:39;76.63;;;42.70;;
19828;SDS011;10075;50.924;4.396;2023-02-15T07:30:07;76.10;;;41.37;;
19828;SDS011;10075;50.924;4.396;2023-02-15T07:32:35;79.80;;;40.17;;
19828;SDS011;10075;50.924;4.396;2023-02-15T07:35:22;75.73;;;42.17;;
19828;SDS011;10075;50.924;4.396;2023-02-15T07:37:49;71.90;;;38.33;;
19828;SDS011;10075;50.924;4.396;2023-02-15T07:40:19;66.43;;;37.77;;
19828;SDS011;10075;50.924;4.396;2023-02-15T07:42:48;74.43;;;39.20;;
19828;SDS011;10075;50.924;4.396;2023-02-15T07:45:18;71.57;;;39.00;;
19828;SDS011;10075;50.924;4.396;2023-02-15T07:47:45;66.20;;;37.87;;
19828;SDS011;10075;50.924;4.396;2023-02-15T07:50:12;71.53;;;38.60;;
19828;SDS011;10075;50.924;4.396;2023-02-15T07:52:39;66.07;;;37.67;;
19828;SDS011;10075;50.924;4.396;2023-02-15T07:55:06;69.60;;;37.97;;
19828;SDS011;10075;50.924;4.396;2023-02-15T07:57:35;71.77;;;38.53;;
19828;SDS011;10075;50.924;4.396;2023-02-15T08:00:02;64.80;;;35.93;;
19828;SDS011;10075;50.924;4.396;2023-02-15T08:02:30;65.90;;;36.97;;
19828;SDS011;10075;50.924;4.396;2023-02-15T08:04:57;66.13;;;36.97;;
19828;SDS011;10075;50.924;4.396;2023-02-15T08:07:24;69.27;;;37.17;;
19828;SDS011;10075;50.924;4.396;2023-02-15T08:09:51;62.83;;;37.80;;
19828;SDS011;10075;50.924;4.396;2023-02-15T08:12:18;71.03;;;37.37;;
19828;SDS011;10075;50.924;4.396;2023-02-15T08:14:47;61.87;;;37.77;;
19828;SDS011;10075;50.924;4.396;2023-02-15T08:17:14;65.27;;;36.73;;
19828;SDS011;10075;50.924;4.396;2023-02-15T08:19:41;71.83;;;36.03;;
19828;SDS011;10075;50.924;4.396;2023-02-15T08:22:11;83.47;;;43.87;;
19828;SDS011;10075;50.924;4.396;2023-02-15T08:24:39;74.37;;;38.67;;
19828;SDS011;10075;50.924;4.396;2023-02-15T08:27:08;68.70;;;36.30;;
19828;SDS011;10075;50.924;4.396;2023-02-15T08:29:36;63.60;;;37.50;;
19828;SDS011;10075;50.924;4.396;2023-02-15T08:32:07;68.37;;;34.83;;
19828;SDS011;10075;50.924;4.396;2023-02-15T08:34:35;69.37;;;36.63;;
19828;SDS011;10075;50.924;4.396;2023-02-15T08:37:04;63.90;;;36.70;;
19828;SDS011;10075;50.924;4.396;2023-02-15T08:39:32;63.97;;;35.23;;
19828;SDS011;10075;50.924;4.396;2023-02-15T08:41:59;57.07;;;34.57;;
19828;SDS011;10075;50.924;4.396;2023-02-15T08:44:26;58.37;;;34.37;;
19828;SDS011;10075;50.924;4.396;2023-02-15T08:46:53;57.47;;;35.33;;
19828;SDS011;10075;50.924;4.396;2023-02-15T08:49:23;57.60;;;33.30;;
19828;SDS011;10075;50.924;4.396;2023-02-15T08:51:50;67.70;;;36.23;;
19828;SDS011;10075;50.924;4.396;2023-02-15T08:54:18;68.07;;;38.07;;
19828;SDS011;10075;50.924;4.396;2023-02-15T08:56:46;81.23;;;43.13;;
19828;SDS011;10075;50.924;4.396;2023-02-15T08:59:14;62.13;;;35.80;;
19828;SDS011;10075;50.924;4.396;2023-02-15T09:01:43;56.20;;;31.07;;
19828;SDS011;10075;50.924;4.396;2023-02-15T09:04:11;59.40;;;31.10;;
19828;SDS011;10075;50.924;4.396;2023-02-15T09:06:42;49.03;;;30.73;;
19828;SDS011;10075;50.924;4.396;2023-02-15T09:09:11;51.73;;;29.57;;
19828;SDS011;10075;50.924;4.396;2023-02-15T09:11:39;49.50;;;27.87;;
19828;SDS011;10075;50.924;4.396;2023-02-15T09:14:08;49.50;;;28.77;;
19828;SDS011;10075;50.924;4.396;2023-02-15T09:16:38;44.40;;;26.80;;
19828;SDS011;10075;50.924;4.396;2023-02-15T09:19:06;49.23;;;26.53;;
19828;SDS011;10075;50.924;4.396;2023-02-15T09:21:35;49.10;;;26.47;;
19828;SDS011;10075;50.924;4.396;2023-02-15T09:24:05;42.63;;;25.00;;
19828;SDS011;10075;50.924;4.396;2023-02-15T09:26:35;46.13;;;26.57;;
19828;SDS011;10075;50.924;4.396;2023-02-15T09:29:04;44.17;;;25.73;;
19828;SDS011;10075;50.924;4.396;2023-02-15T09:31:31;46.37;;;26.33;;
19828;SDS011;10075;50.924;4.396;2023-02-15T09:33:59;44.27;;;26.73;;
19828;SDS011;10075;50.924;4.396;2023-02-15T09:36:27;44.73;;;25.40;;
19828;SDS011;10075;50.924;4.396;2023-02-15T09:38:57;41.93;;;25.40;;
19828;SDS011;10075;50.924;4.396;2023-02-15T09:41:40;42.37;;;25.30;;
19828;SDS011;10075;50.924;4.396;2023-02-15T09:44:21;44.07;;;26.77;;
19828;SDS011;10075;50.924;4.396;2023-02-15T09:47:07;56.67;;;30.53;;
19828;SDS011;10075;50.924;4.396;2023-02-15T09:49:49;57.03;;;30.93;;
19828;SDS011;10075;50.924;4.396;2023-02-15T09:52:29;46.23;;;26.67;;
19828;SDS011;10075;50.924;4.396;2023-02-15T09:55:16;45.23;;;26.03;;
19828;SDS011;10075;50.924;4.396;2023-02-15T09:58:00;41.43;;;24.43;;
19828;SDS011;10075;50.924;4.396;2023-02-15T10:00:36;42.40;;;25.43;;
19828;SDS011;10075;50.924;4.396;2023-02-15T10:03:16;39.83;;;23.67;;
19828;SDS011;10075;50.924;4.396;2023-02-15T10:05:55;38.17;;;24.53;;
19828;SDS011;10075;50.924;4.396;2023-02-15T10:11:26;40.73;;;23.67;;
19828;SDS011;10075;50.924;4.396;2023-02-15T10:14:12;37.97;;;22.33;;
19828;SDS011;10075;50.924;4.396;2023-02-15T10:16:54;43.87;;;22.07;;
19828;SDS011;10075;50.924;4.396;2023-02-15T10:19:32;36.37;;;22.07;;
19828;SDS011;10075;50.924;4.396;2023-02-15T10:22:10;41.63;;;23.67;;
19828;SDS011;10075;50.924;4.396;2023-02-15T10:27:40;39.17;;;21.70;;
19828;SDS011;10075;50.924;4.396;2023-02-15T10:32:47;38.37;;;22.03;;
19828;SDS011;10075;50.924;4.396;2023-02-15T10:35:21;38.27;;;23.07;;
19828;SDS011;10075;50.924;4.396;2023-02-15T10:40:55;42.07;;;23.77;;
19828;SDS011;10075;50.924;4.396;2023-02-15T10:43:34;36.90;;;23.17;;
19828;SDS011;10075;50.924;4.396;2023-02-15T10:46:21;39.90;;;24.10;;
19828;SDS011;10075;50.924;4.396;2023-02-15T10:49:05;38.90;;;23.93;;
19828;SDS011;10075;50.924;4.396;2023-02-15T10:51:47;43.97;;;24.50;;
19828;SDS011;10075;50.924;4.396;2023-02-15T10:54:25;45.87;;;26.17;;
19828;SDS011;10075;50.924;4.396;2023-02-15T10:57:02;40.97;;;24.37;;
19828;SDS011;10075;50.924;4.396;2023-02-15T10:59:39;42.80;;;24.37;;
19828;SDS011;10075;50.924;4.396;2023-02-15T11:02:18;45.37;;;24.37;;
19828;SDS011;10075;50.924;4.396;2023-02-15T11:04:53;39.67;;;23.77;;
19828;SDS011;10075;50.924;4.396;2023-02-15T11:07:25;41.77;;;25.37;;
19828;SDS011;10075;50.924;4.396;2023-02-15T11:10:00;40.37;;;25.63;;
19828;SDS011;10075;50.924;4.396;2023-02-15T11:12:40;43.30;;;25.03;;
19828;SDS011;10075;50.924;4.396;2023-02-15T11:15:11;44.40;;;26.00;;
19828;SDS011;10075;50.924;4.396;2023-02-15T11:17:48;45.07;;;27.40;;
19828;SDS011;10075;50.924;4.396;2023-02-15T11:20:20;41.57;;;23.97;;
19828;SDS011;10075;50.924;4.396;2023-02-15T11:22:53;44.93;;;26.87;;
19828;SDS011;10075;50.924;4.396;2023-02-15T11:25:23;45.50;;;26.80;;
19828;SDS011;10075;50.924;4.396;2023-02-15T11:27:52;45.37;;;26.37;;
19828;SDS011;10075;50.924;4.396;2023-02-15T11:30:22;38.67;;;24.13;;
19828;SDS011;10075;50.924;4.396;2023-02-15T11:32:52;39.33;;;23.47;;
19828;SDS011;10075;50.924;4.396;2023-02-15T11:35:24;42.43;;;25.77;;
19828;SDS011;10075;50.924;4.396;2023-02-15T11:37:58;42.43;;;27.07;;
19828;SDS011;10075;50.924;4.396;2023-02-15T11:40:32;45.63;;;26.20;;
19828;SDS011;10075;50.924;4.396;2023-02-15T11:43:03;42.00;;;24.20;;
19828;SDS011;10075;50.924;4.396;2023-02-15T11:45:34;39.00;;;24.53;;
19828;SDS011;10075;50.924;4.396;2023-02-15T11:48:05;41.97;;;24.90;;
19828;SDS011;10075;50.924;4.396;2023-02-15T11:50:36;46.37;;;25.60;;
19828;SDS011;10075;50.924;4.396;2023-02-15T11:53:06;41.83;;;24.73;;
19828;SDS011;10075;50.924;4.396;2023-02-15T11:55:37;41.27;;;25.37;;
19828;SDS011;10075;50.924;4.396;2023-02-15T11:58:08;41.47;;;25.13;;
19828;SDS011;10075;50.924;4.396;2023-02-15T12:00:43;40.03;;;24.48;;
19828;SDS011;10075;50.924;4.396;2023-02-15T12:03:14;44.33;;;25.90;;
19828;SDS011;10075;50.924;4.396;2023-02-15T12:05:45;41.20;;;27.17;;
19828;SDS011;10075;50.924;4.396;2023-02-15T12:08:16;43.35;;;26.45;;
19828;SDS011;10075;50.924;4.396;2023-02-15T12:10:55;39.97;;;25.52;;
19828;SDS011;10075;50.924;4.396;2023-02-15T12:13:26;39.33;;;25.87;;
19828;SDS011;10075;50.924;4.396;2023-02-15T12:15:54;50.25;;;28.95;;
19828;SDS011;10075;50.924;4.396;2023-02-15T12:18:33;44.87;;;27.83;;
19828;SDS011;10075;50.924;4.396;2023-02-15T12:21:03;41.63;;;26.73;;
19828;SDS011;10075;50.924;4.396;2023-02-15T12:23:33;43.53;;;27.67;;
19828;SDS011;10075;50.924;4.396;2023-02-15T12:26:06;44.13;;;26.97;;
19828;SDS011;10075;50.924;4.396;2023-02-15T12:28:34;43.47;;;27.90;;
19828;SDS011;10075;50.924;4.396;2023-02-15T12:31:03;48.97;;;27.77;;
19828;SDS011;10075;50.924;4.396;2023-02-15T12:33:35;50.40;;;29.67;;
19828;SDS011;10075;50.924;4.396;2023-02-15T12:36:11;44.60;;;28.40;;
19828;SDS011;10075;50.924;4.396;2023-02-15T12:38:43;43.92;;;28.73;;
19828;SDS011;10075;50.924;4.396;2023-02-15T12:41:28;47.28;;;29.58;;
19828;SDS011;10075;50.924;4.396;2023-02-15T12:44:02;47.83;;;29.43;;
19828;SDS011;10075;50.924;4.396;2023-02-15T12:46:31;45.63;;;27.83;;
19828;SDS011;10075;50.924;4.396;2023-02-15T12:49:06;44.70;;;28.10;;
19828;SDS011;10075;50.924;4.396;2023-02-15T12:51:44;52.25;;;28.65;;
19828;SDS011;10075;50.924;4.396;2023-02-15T12:57:15;47.97;;;27.63;;
19828;SDS011;10075;50.924;4.396;2023-02-15T12:59:52;49.10;;;30.03;;
19828;SDS011;10075;50.924;4.396;2023-02-15T13:02:22;60.90;;;29.55;;
19828;SDS011;10075;50.924;4.396;2023-02-15T13:04:53;46.33;;;27.83;;
19828;SDS011;10075;50.924;4.396;2023-02-15T13:07:23;46.13;;;29.63;;
19828;SDS011;10075;50.924;4.396;2023-02-15T13:09:55;47.10;;;29.98;;
19828;SDS011;10075;50.924;4.396;2023-02-15T13:12:24;43.87;;;28.17;;
19828;SDS011;10075;50.924;4.396;2023-02-15T13:14:53;50.30;;;30.67;;
19828;SDS011;10075;50.924;4.396;2023-02-15T13:17:21;53.10;;;31.33;;
19828;SDS011;10075;50.924;4.396;2023-02-15T13:19:56;50.20;;;31.40;;
19828;SDS011;10075;50.924;4.396;2023-02-15T13:22:28;43.63;;;28.67;;
19828;SDS011;10075;50.924;4.396;2023-02-15T13:25:03;42.60;;;27.88;;
19828;SDS011;10075;50.924;4.396;2023-02-15T13:27:37;45.63;;;28.48;;
19828;SDS011;10075;50.924;4.396;2023-02-15T13:30:10;50.03;;;28.70;;
19828;SDS011;10075;50.924;4.396;2023-02-15T13:32:46;48.28;;;28.90;;
19828;SDS011;10075;50.924;4.396;2023-02-15T13:35:17;43.50;;;27.45;;
19828;SDS011;10075;50.924;4.396;2023-02-15T13:37:49;45.80;;;28.92;;
19828;SDS011;10075;50.924;4.396;2023-02-15T13:40:30;45.92;;;28.75;;
19828;SDS011;10075;50.924;4.396;2023-02-15T13:43:05;50.38;;;29.50;;
19828;SDS011;10075;50.924;4.396;2023-02-15T13:45:44;45.63;;;30.23;;
19828;SDS011;10075;50.924;4.396;2023-02-15T13:48:24;47.00;;;29.20;;
19828;SDS011;10075;50.924;4.396;2023-02-15T13:51:03;46.00;;;29.73;;
19828;SDS011;10075;50.924;4.396;2023-02-15T13:53:41;47.97;;;30.00;;
19828;SDS011;10075;50.924;4.396;2023-02-15T13:56:25;48.88;;;29.05;;
19828;SDS011;10075;50.924;4.396;2023-02-15T13:59:02;45.63;;;29.92;;
19828;SDS011;10075;50.924;4.396;2023-02-15T14:01:42;47.30;;;29.10;;
19828;SDS011;10075;50.924;4.396;2023-02-15T14:04:21;41.70;;;28.17;;
19828;SDS011;10075;50.924;4.396;2023-02-15T14:07:12;44.92;;;30.70;;
19828;SDS011;10075;50.924;4.396;2023-02-15T14:09:59;48.85;;;31.35;;
19828;SDS011;10075;50.924;4.396;2023-02-15T14:12:43;45.80;;;30.08;;
19828;SDS011;10075;50.924;4.396;2023-02-15T14:15:29;47.05;;;30.40;;
19828;SDS011;10075;50.924;4.396;2023-02-15T14:18:07;51.33;;;31.02;;
19828;SDS011;10075;50.924;4.396;2023-02-15T14:20:43;49.33;;;30.38;;
19828;SDS011;10075;50.924;4.396;2023-02-15T14:23:22;46.03;;;31.13;;
19828;SDS011;10075;50.924;4.396;2023-02-15T14:26:02;47.67;;;30.77;;
19828;SDS011;10075;50.924;4.396;2023-02-15T14:28:37;47.23;;;29.97;;
19828;SDS011;10075;50.924;4.396;2023-02-15T14:31:11;50.45;;;31.40;;
19828;SDS011;10075;50.924;4.396;2023-02-15T14:33:41;51.70;;;29.48;;
19828;SDS011;10075;50.924;4.396;2023-02-15T14:36:15;46.47;;;28.00;;
19828;SDS011;10075;50.924;4.396;2023-02-15T14:38:54;45.25;;;28.92;;
19828;SDS011;10075;50.924;4.396;2023-02-15T14:41:28;44.17;;;28.38;;
19828;SDS011;10075;50.924;4.396;2023-02-15T14:44:05;46.30;;;29.65;;
19828;SDS011;10075;50.924;4.396;2023-02-15T14:46:41;49.13;;;30.17;;
19828;SDS011;10075;50.924;4.396;2023-02-15T14:49:12;48.70;;;29.52;;
19828;SDS011;10075;50.924;4.396;2023-02-15T14:51:56;48.17;;;29.50;;
19828;SDS011;10075;50.924;4.396;2023-02-15T14:57:23;51.42;;;31.40;;
19828;SDS011;10075;50.924;4.396;2023-02-15T14:59:56;51.88;;;31.20;;
19828;SDS011;10075;50.924;4.396;2023-02-15T15:02:25;48.20;;;31.95;;
19828;SDS011;10075;50.924;4.396;2023-02-15T15:04:56;50.42;;;30.65;;
19828;SDS011;10075;50.924;4.396;2023-02-15T15:07:28;50.65;;;33.15;;